Terminal Aerodrome Forecast
Issued by NWS Twin Cities, MN

Home | Current Version | Previous Version | Text Only | Print | Product List | Glossary On
Versions: 1 2 3 4 5 6 7 8 9 10 11 12 13 14 15 16 17 18 19 20
000
FTUS43 KMPX 011100
TAFSTC
TAF
KSTC 011132Z 0112/0212 26007KT P6SM VCSH SCT010 BKN100
     FM011400 30009KT P6SM BKN120
     FM011700 30011G19KT P6SM SCT100
     FM020000 28005KT P6SM SCT050 BKN080
     FM020800 28003KT P6SM SKC=

USA.gov is the U.S. government's official web portal to all federal, state and local government web resources and services.